Time;durP1;ratioP1;P1;durP2;ratioP2;P2;SDS_P1;SDS_P2;PMS_P1;PMS_P2;Temp;Humidity;BMP_temperature;BMP_pressure;BME280_temperature;BME280_humidity;BME280_pressure;Samples;Min_cycle;Max_cycle;Signal;HPM_P1;HPM_P2
2022/08/06 00:00:41;;;;;;;4.83;2.77;;;20.20;99.90;;;;;;21000340;28;20036;-74
2022/08/06 00:10:42;;;;;;;5.55;2.92;;;20.10;99.90;;;;;;21008458;28;20041;-74
2022/08/06 00:20:43;;;;;;;5.67;2.77;;;20.20;99.90;;;;;;20998285;28;20442;-74
2022/08/06 00:30:44;;;;;;;7.37;3.37;;;20.20;99.90;;;;;;20997453;28;20075;-74
2022/08/06 00:40:45;;;;;;;5.33;3.40;;;19.90;99.90;;;;;;20996067;28;20060;-74
2022/08/06 00:50:46;;;;;;;;;;;20.20;99.90;;;;;;21021323;22;20138;-73
2022/08/06 01:00:47;;;;;;;6.13;3.80;;;20.10;99.90;;;;;;21000442;28;19916;-73
2022/08/06 01:10:48;;;;;;;7.40;4.47;;;20.10;99.90;;;;;;20993233;28;20748;-73
2022/08/06 01:21:22;;;;;;;5.53;3.13;;;20.00;99.90;;;;;;20992441;28;20509;-74
2022/08/06 01:31:42;;;;;;;5.75;3.20;;;20.20;99.90;;;;;;20991857;28;20048;-73
2022/08/06 01:41:50;;;;;;;4.97;3.03;;;20.20;99.90;;;;;;20990944;28;20045;-73
2022/08/06 01:51:54;;;;;;;6.15;3.67;;;20.10;99.90;;;;;;20991490;28;20055;-72
2022/08/06 02:01:56;;;;;;;9.00;4.90;;;20.10;99.90;;;;;;20972898;28;20047;-73
2022/08/06 02:12:02;;;;;;;8.85;5.80;;;19.70;99.90;;;;;;20990482;28;20040;-73
2022/08/06 02:22:04;;;;;;;16.15;8.38;;;19.50;99.90;;;;;;20989618;28;20044;-73
2022/08/06 02:32:05;;;;;;;18.33;9.70;;;19.10;99.90;;;;;;20989406;28;20080;-72
2022/08/06 02:42:30;;;;;;;20.23;10.38;;;18.90;99.90;;;;;;20989329;28;20048;-73
2022/08/06 02:52:43;;;;;;;16.48;9.82;;;18.90;99.90;;;;;;20999959;28;20052;-73
2022/08/06 03:02:46;;;;;;;16.27;9.68;;;18.80;99.90;;;;;;20986026;28;20036;-73
2022/08/06 03:12:48;;;;;;;16.27;8.38;;;18.80;99.90;;;;;;21009933;28;20032;-73
2022/08/06 03:22:51;;;;;;;17.45;8.82;;;18.80;99.90;;;;;;21001825;28;20036;-73
2022/08/06 03:32:53;;;;;;;16.63;9.32;;;18.60;99.90;;;;;;21000994;28;20044;-73
2022/08/06 03:42:54;;;;;;;12.65;6.68;;;18.60;99.90;;;;;;21000386;28;20040;-73
2022/08/06 03:53:01;;;;;;;8.13;5.03;;;18.80;99.90;;;;;;20999741;28;20098;-73
2022/08/06 04:03:04;;;;;;;8.85;4.93;;;18.50;99.90;;;;;;20998350;28;20044;-72
2022/08/06 04:13:11;;;;;;;7.18;3.78;;;18.40;99.90;;;;;;20980555;28;20043;-72
2022/08/06 04:23:12;;;;;;;13.48;3.40;;;18.20;99.90;;;;;;20997517;28;20044;-73
2022/08/06 04:33:16;;;;;;;4.93;3.30;;;18.20;99.90;;;;;;20997036;28;20040;-73
2022/08/06 04:43:17;;;;;;;5.57;3.30;;;18.10;99.90;;;;;;20998766;28;20037;-73
2022/08/06 04:53:19;;;;;;;8.20;2.83;;;18.10;99.90;;;;;;20994783;28;20448;-73
2022/08/06 05:03:20;;;;;;;6.35;2.72;;;18.20;99.90;;;;;;20994434;28;20521;-73
2022/08/06 05:13:23;;;;;;;7.60;3.00;;;18.30;99.90;;;;;;20994888;28;20085;-73
2022/08/06 05:23:33;;;;;;;5.20;2.60;;;18.30;99.90;;;;;;20975048;28;20694;-73
2022/08/06 05:33:37;;;;;;;4.22;2.25;;;18.10;99.90;;;;;;21018904;28;20042;-73
2022/08/06 05:43:39;;;;;;;3.78;2.30;;;18.10;99.90;;;;;;21027325;28;20406;-74
2022/08/06 05:53:44;;;;;;;3.25;2.40;;;18.00;99.90;;;;;;21051014;28;20070;-73
2022/08/06 06:03:46;;;;;;;3.78;1.90;;;18.10;99.90;;;;;;21075117;28;20044;-73
2022/08/06 06:13:48;;;;;;;4.35;2.03;;;18.00;99.90;;;;;;21036186;28;20440;-73
2022/08/06 06:23:55;;;;;;;5.68;2.30;;;17.70;99.90;;;;;;21067050;28;20070;-73
2022/08/06 06:34:18;;;;;;;3.20;1.83;;;17.50;99.90;;;;;;21078456;28;20160;-73
2022/08/06 06:44:31;;;;;;;3.80;1.98;;;17.70;99.90;;;;;;21089456;28;20097;-76
2022/08/06 06:54:38;;;;;;;7.22;2.67;;;17.50;99.90;;;;;;21073419;22;20055;-79
2022/08/06 07:04:41;;;;;;;6.30;2.30;;;17.30;99.90;;;;;;21047761;28;20069;-78
2022/08/06 07:14:44;;;;;;;6.93;2.42;;;17.30;99.90;;;;;;21044169;28;20036;-78
2022/08/06 07:24:45;;;;;;;7.22;3.30;;;17.30;99.90;;;;;;21043971;28;20037;-78
2022/08/06 07:34:47;;;;;;;2.63;1.73;;;17.50;99.90;;;;;;21019709;28;20105;-77
2022/08/06 07:44:50;;;;;;;6.68;2.33;;;17.70;99.90;;;;;;21007834;28;20047;-77
2022/08/06 07:54:54;;;;;;;6.20;2.05;;;17.80;99.90;;;;;;21001400;28;20045;-77
2022/08/06 08:15:18;;;;;;;9.27;2.33;;;17.70;99.90;;;;;;20999318;28;20041;-77
2022/08/06 08:25:19;;;;;;;4.03;1.92;;;17.60;99.90;;;;;;20998722;28;20445;-77
2022/08/06 08:35:20;;;;;;;11.13;3.67;;;18.00;99.90;;;;;;20998995;28;20037;-77
2022/08/06 08:45:22;;;;;;;8.00;2.37;;;18.00;99.90;;;;;;21022046;28;20036;-80
2022/08/06 08:55:25;;;;;;;14.30;2.67;;;17.80;99.90;;;;;;21014542;28;20101;-79
2022/08/06 09:05:26;;;;;;;3.20;2.40;;;17.90;99.90;;;;;;21016066;28;20514;-78
2022/08/06 09:15:28;;;;;;;9.13;2.30;;;18.10;99.90;;;;;;21009607;28;20104;-78
2022/08/06 09:25:43;;;;;;;4.82;2.58;;;17.90;99.90;;;;;;21009482;28;20596;-77
2022/08/06 09:35:58;;;;;;;3.72;2.53;;;17.80;99.90;;;;;;21001461;28;20059;-78
2022/08/06 09:45:58;;;;;;;6.25;2.30;;;17.90;99.90;;;;;;21017093;28;20045;-77
2022/08/06 09:55:59;;;;;;;4.37;2.83;;;18.10;99.90;;;;;;21001832;28;20036;-79
2022/08/06 10:06:13;;;;;;;7.63;2.20;;;18.20;99.90;;;;;;21031749;28;20039;-79
2022/08/06 10:16:19;;;;;;;5.78;2.20;;;18.40;99.90;;;;;;21032209;28;20063;-80
2022/08/06 10:26:31;;;;;;;5.60;3.35;;;18.70;99.90;;;;;;21011526;28;20493;-79
2022/08/06 10:36:49;;;;;;;5.70;2.38;;;18.70;99.90;;;;;;20955260;28;20083;-79
2022/08/06 10:46:53;;;;;;;6.95;2.65;;;18.70;99.90;;;;;;20925166;28;20100;-79
2022/08/06 10:56:55;;;;;;;5.45;2.08;;;18.70;99.90;;;;;;20951130;28;20044;-79
2022/08/06 11:07:32;;;;;;;6.25;2.42;;;19.10;99.90;;;;;;20961839;28;20043;-77
2022/08/06 11:17:46;;;;;;;4.60;2.20;;;19.30;99.90;;;;;;20928864;28;20140;-78
2022/08/06 11:28:01;;;;;;;4.57;2.33;;;19.60;99.90;;;;;;20988786;28;20124;-78
2022/08/06 11:38:04;;;;;;;6.47;2.75;;;19.70;99.90;;;;;;21002982;28;20531;-78
2022/08/06 11:48:06;;;;;;;6.30;2.42;;;20.30;99.90;;;;;;20994110;28;20047;-77
2022/08/06 11:58:20;;;;;;;7.05;3.10;;;20.40;99.90;;;;;;21009853;28;20051;-76
2022/08/06 12:08:23;;;;;;;2.72;1.80;;;20.40;99.90;;;;;;21025353;28;20036;-77
2022/08/06 12:18:24;;;;;;;4.63;2.10;;;21.00;99.90;;;;;;20967852;28;20045;-77
2022/08/06 12:28:25;;;;;;;2.17;1.67;;;20.90;99.90;;;;;;20897887;28;20041;-74
2022/08/06 12:38:29;;;;;;;10.10;2.10;;;21.90;99.90;;;;;;20948582;28;20099;-74
2022/08/06 12:48:32;;;;;;;3.47;1.55;;;22.10;99.90;;;;;;20950008;28;20040;-74
2022/08/06 12:58:35;;;;;;;4.38;2.17;;;22.00;99.90;;;;;;20951277;28;20089;-75
2022/08/06 13:08:37;;;;;;;5.53;1.90;;;22.00;99.90;;;;;;20948619;28;20043;-75
2022/08/06 13:18:40;;;;;;;4.35;2.00;;;22.50;99.90;;;;;;20953246;28;20041;-75
2022/08/06 13:29:04;;;;;;;2.80;1.40;;;23.20;99.90;;;;;;20912839;28;20041;-75
2022/08/06 13:39:25;;;;;;;1.83;1.35;;;23.50;99.90;;;;;;20941749;28;20477;-74
2022/08/06 13:49:26;;;;;;;3.67;1.40;;;23.60;99.90;;;;;;20912233;28;20037;-76
2022/08/06 13:59:30;;;;;;;3.88;2.33;;;23.60;99.90;;;;;;21029581;22;20198;-76
2022/08/06 14:09:31;;;;;;;2.70;1.80;;;23.80;99.90;;;;;;20989278;28;20056;-76
2022/08/06 14:19:32;;;;;;;8.70;2.00;;;23.90;99.90;;;;;;21052481;28;20040;-76
2022/08/06 14:29:34;;;;;;;7.70;4.63;;;23.90;99.90;;;;;;21072696;28;20282;-76
2022/08/06 14:39:35;;;;;;;7.45;3.55;;;23.70;99.90;;;;;;21072465;28;20040;-76
2022/08/06 14:49:39;;;;;;;2.67;1.70;;;24.00;99.90;;;;;;21027985;28;20033;-75
2022/08/06 14:59:40;;;;;;;4.75;2.05;;;23.90;99.90;;;;;;21003979;28;20119;-76
2022/08/06 15:09:41;;;;;;;3.28;1.88;;;24.00;99.90;;;;;;20998100;28;20554;-76
2022/08/06 15:19:41;;;;;;;4.93;2.50;;;23.60;99.90;;;;;;21001221;28;20047;-76
2022/08/06 15:29:42;;;;;;;3.63;2.00;;;23.70;99.90;;;;;;21001330;28;20097;-76
2022/08/06 15:39:43;;;;;;;4.55;2.63;;;23.20;99.90;;;;;;20982909;28;20056;-76
2022/08/06 15:49:44;;;;;;;2.67;1.75;;;23.60;99.90;;;;;;21000261;28;20029;-76
2022/08/06 15:59:45;;;;;;;3.53;1.80;;;23.60;99.90;;;;;;20998915;28;20128;-75
2022/08/06 16:09:47;;;;;;;3.17;1.87;;;23.60;99.90;;;;;;20999060;28;20056;-75
2022/08/06 16:19:48;;;;;;;6.30;2.30;;;23.60;99.90;;;;;;20997960;28;20431;-75
2022/08/06 16:29:49;;;;;;;;;;;23.30;99.90;;;;;;20997374;28;20453;-75
2022/08/06 16:39:50;;;;;;;3.40;2.00;;;23.20;99.90;;;;;;20996192;28;19940;-75
2022/08/06 16:49:51;;;;;;;4.28;2.55;;;23.10;99.90;;;;;;20995283;28;20041;-76
2022/08/06 16:59:52;;;;;;;3.05;2.42;;;23.30;99.90;;;;;;20994104;28;20525;-76
2022/08/06 17:09:53;;;;;;;2.57;2.23;;;23.00;99.90;;;;;;20993171;28;20044;-75
2022/08/06 17:19:54;;;;;;;4.77;2.50;;;22.70;99.90;;;;;;21059327;28;20122;-76
2022/08/06 17:29:55;;;;;;;4.47;2.30;;;22.30;99.90;;;;;;21075928;28;20394;-75
2022/08/06 17:39:56;;;;;;;4.67;2.50;;;22.20;99.90;;;;;;21075562;28;20039;-77
2022/08/06 17:49:56;;;;;;;5.03;3.10;;;21.90;99.90;;;;;;21074908;28;20070;-75
2022/08/06 17:59:57;;;;;;;12.83;4.00;;;21.70;99.90;;;;;;21074050;28;20044;-75
2022/08/06 18:20:18;;;;;;;3.67;2.38;;;21.60;99.90;;;;;;21006777;28;20040;-76
2022/08/06 18:30:20;;;;;;;;;;;21.50;99.90;;;;;;21006948;28;20036;-75
2022/08/06 18:40:21;;;;;;;4.88;3.00;;;21.30;99.90;;;;;;21005761;28;20401;-76
2022/08/06 18:50:21;;;;;;;4.57;2.90;;;21.10;99.90;;;;;;21004851;28;20044;-75
2022/08/06 19:00:24;;;;;;;6.00;2.73;;;20.90;99.90;;;;;;21003927;28;20102;-76
2022/08/06 19:10:27;;;;;;;4.03;3.10;;;21.10;99.90;;;;;;20959726;28;20071;-76
2022/08/06 19:20:28;;;;;;;3.90;2.65;;;20.70;99.90;;;;;;20976505;28;20040;-76
2022/08/06 19:30:29;;;;;;;4.07;2.83;;;20.70;99.90;;;;;;20964480;28;20033;-76
2022/08/06 19:40:45;;;;;;;5.17;3.13;;;20.40;99.90;;;;;;20960765;28;20433;-75
2022/08/06 19:50:45;;;;;;;5.07;3.00;;;20.30;99.90;;;;;;20965670;28;20051;-75
2022/08/06 20:00:46;;;;;;;5.50;3.43;;;20.10;99.90;;;;;;20996745;28;20566;-75
2022/08/06 20:10:47;;;;;;;5.10;3.37;;;19.90;99.90;;;;;;20998726;28;20040;-75
2022/08/06 20:20:48;;;;;;;4.03;3.03;;;19.80;99.90;;;;;;21072521;28;20032;-75
2022/08/06 20:30:49;;;;;;;4.27;3.00;;;19.90;99.90;;;;;;21062993;28;20075;-75
2022/08/06 20:40:50;;;;;;;6.68;3.75;;;19.60;99.90;;;;;;20957759;28;20044;-75
2022/08/06 20:50:51;;;;;;;6.37;4.27;;;19.60;99.90;;;;;;20917353;28;20488;-75
2022/08/06 21:00:52;;;;;;;5.93;3.30;;;19.60;99.90;;;;;;20911993;28;20064;-74
2022/08/06 21:10:54;;;;;;;5.53;4.30;;;19.70;99.90;;;;;;20911411;28;20043;-75
2022/08/06 21:20:56;;;;;;;4.55;3.50;;;19.60;99.90;;;;;;21040793;28;20052;-75
2022/08/06 21:30:57;;;;;;;5.33;3.60;;;19.50;99.90;;;;;;20992794;28;20513;-74
2022/08/06 21:41:26;;;;;;;6.67;3.50;;;19.40;99.90;;;;;;20974358;28;20048;-75
2022/08/06 21:51:20;;;;;;;4.05;3.53;;;19.20;99.90;;;;;;20990995;28;20050;-75
2022/08/06 22:01:22;;;;;;;6.20;3.70;;;19.20;99.90;;;;;;20989373;28;20048;-75
2022/08/06 22:11:25;;;;;;;8.40;4.35;;;18.80;99.90;;;;;;20990432;28;20131;-74
2022/08/06 22:21:26;;;;;;;8.13;4.07;;;18.40;99.90;;;;;;20990348;28;20037;-75
2022/08/06 22:31:27;;;;;;;5.17;3.87;;;18.20;99.90;;;;;;20989769;28;20408;-75
2022/08/06 22:41:27;;;;;;;4.50;3.70;;;18.30;99.90;;;;;;20971677;28;20167;-75
2022/08/06 22:51:28;;;;;;;4.57;3.20;;;18.40;99.90;;;;;;20988927;28;20044;-75
2022/08/06 23:01:30;;;;;;;6.07;3.47;;;18.20;99.90;;;;;;20988432;28;20483;-75
2022/08/06 23:11:30;;;;;;;;;;;18.30;99.90;;;;;;20999056;28;20036;-75
2022/08/06 23:21:32;;;;;;;4.40;4.00;;;17.80;99.90;;;;;;21002869;28;19962;-75
2022/08/06 23:31:33;;;;;;;;;;;17.50;99.90;;;;;;21002574;28;20133;-75
2022/08/06 23:41:34;;;;;;;6.28;3.88;;;17.60;99.90;;;;;;21001367;28;19908;-75
2022/08/06 23:51:35;;;;;;;6.77;4.73;;;17.20;99.90;;;;;;21000559;28;20071;-75
